Big Rapids, MI

7:25 AM EDT on April 23, 2017 (GMT -0400)
Roben-Hood

Weather History for KRQB - July, 2013

Change the Weather History Date:

Thursday, July 11, 2013

  Actual Average Record
Temperature  
Mean Temperature 66 °F -  
Max Temperature 79 °F 82 °F 93 °F (1980)
Min Temperature 52 °F 56 °F 42 °F (1978)
Growing Degree Days 16 (Base 50)    
Moisture  
Dew Point 50 °F    
Average Humidity 61    
Maximum Humidity 97    
Minimum Humidity 24    
Precipitation  
Precipitation 0.00 in - - ()
Sea Level Pressure  
Sea Level Pressure 30.06 in    
Wind  
Wind Speed 3 mph (NNW)    
Max Wind Speed 12 mph    
Max Gust Speed 20 mph    
Visibility 10 miles    
Events      
Averages and records for this station are not official NWS values.
T = Trace of Precipitation, MM = Missing Value Source: NWS Daily Summary

Daily Weather History Graph

Daily Weather History Graph

Search for Another Location

Airport or City:

Trip Planner

Search our weather history database for the weather conditions in past years. The results will help you decide how hot, cold, wet, or windy it might be!

Date:

Astronomy

Jul. 11, 2013 Rise Set
Actual Time 6:10 AM EDT 9:23 PM EDT
Civil Twilight 5:35 AM EDT 9:58 PM EDT
Nautical Twilight 4:50 AM EDT 10:43 PM EDT
Astronomical Twilight 3:55 AM EDT 11:38 PM EDT
Moon 9:36 AM EDT (7/11) 10:54 PM EDT (7/11)
Length of Visible Light 16h 22m
Length of Day
15h 12m
Waxing Crescent, 10% of the Moon is Illuminated
Jul 11
Waxing Crescent
Jul 15
First Quarter
Jul 22
Full
Jul 29
Last Quarter
Aug 6
New

Hourly Weather History & Observations

Time (EDT) Temp. Dew Point Humidity Pressure Visibility Wind Dir Wind Speed Gust Speed Precip Events Conditions
12:14 AM 58.1 °F 54.9 °F 89% 30.00 in 10.0 mi Calm Calm - N/A   Clear
12:35 AM 57.2 °F 55.0 °F 92% 30.00 in 10.0 mi Calm Calm - N/A   Clear
12:55 AM 56.5 °F 54.5 °F 93% 30.00 in 10.0 mi Calm Calm - N/A   Clear
1:15 AM 56.5 °F 54.7 °F 94% 30.00 in 10.0 mi Calm Calm - N/A   Clear
1:35 AM 56.3 °F 54.5 °F 94% 30.00 in 10.0 mi Calm Calm - N/A   Clear
1:55 AM 56.1 °F 54.0 °F 92% 30.01 in 10.0 mi Calm Calm - N/A   Clear
2:15 AM 54.9 °F 53.4 °F 95% 30.01 in 10.0 mi Calm Calm - N/A   Clear
2:35 AM 54.9 °F 53.1 °F 94% 30.02 in 10.0 mi Calm Calm - N/A   Clear
2:55 AM 53.8 °F 52.7 °F 96% 30.02 in 10.0 mi SW 4.6 mph - N/A   Clear
3:15 AM 55.0 °F 53.2 °F 94% 30.02 in 10.0 mi Calm Calm - N/A   Clear
3:35 AM 53.8 °F 52.0 °F 94% 30.02 in 10.0 mi Calm Calm - N/A   Clear
3:54 AM 54.3 °F 52.7 °F 94% 30.03 in 10.0 mi Calm Calm - N/A   Clear
4:15 AM 54.1 °F 52.5 °F 94% 30.03 in 10.0 mi Calm Calm - N/A   Clear
4:35 AM 53.6 °F 51.8 °F 94% 30.03 in 10.0 mi Calm Calm - N/A   Clear
4:54 AM 52.9 °F 51.8 °F 96% 30.03 in 10.0 mi Calm Calm - N/A   Clear
5:15 AM 52.2 °F 51.1 °F 96% 30.04 in 7.0 mi South 4.6 mph - N/A   Clear
5:35 AM 52.0 °F 51.1 °F 97% 30.04 in 7.0 mi Calm Calm - N/A   Scattered Clouds
5:54 AM 52.9 °F 52.0 °F 97% 30.04 in 7.0 mi NW 3.5 mph - N/A   Scattered Clouds
6:15 AM 52.2 °F 51.3 °F 97% 30.05 in 10.0 mi Calm Calm - N/A   Clear
6:35 AM 52.9 °F 52.0 °F 97% 30.05 in 10.0 mi Calm Calm - N/A   Clear
6:54 AM 52.9 °F 51.8 °F 96% 30.05 in 7.0 mi Calm Calm - N/A   Clear
7:15 AM 54.5 °F 53.2 °F 96% 30.06 in 7.0 mi South 4.6 mph - N/A   Clear
7:35 AM 55.8 °F 54.7 °F 96% 30.06 in 5.0 mi South 4.6 mph - N/A   Clear
7:54 AM 58.3 °F 57.0 °F 96% 30.06 in 7.0 mi Calm Calm - N/A   Clear
8:15 AM 61.3 °F 58.8 °F 91% 30.06 in 10.0 mi Calm Calm - N/A   Clear
8:35 AM 65.1 °F 52.9 °F 65% 30.06 in 10.0 mi WNW 3.5 mph - N/A   Clear
8:54 AM 65.3 °F 53.4 °F 65% 30.07 in 10.0 mi NW 6.9 mph - N/A   Clear
9:15 AM 65.7 °F 53.2 °F 64% 30.08 in 10.0 mi NW 8.1 mph - N/A   Clear
9:35 AM 66.7 °F 54.7 °F 65% 30.08 in 10.0 mi NW 5.8 mph 19.6 mph N/A   Clear
9:54 AM 67.6 °F 54.7 °F 63% 30.08 in 10.0 mi NW 4.6 mph - N/A   Clear
10:15 AM 69.1 °F 54.0 °F 58% 30.08 in 10.0 mi NW 6.9 mph - N/A   Clear
10:35 AM 70.2 °F 53.2 °F 55% 30.08 in 10.0 mi NW 5.8 mph - N/A   Clear
10:54 AM 71.4 °F 52.5 °F 51% 30.08 in 10.0 mi NNW 9.2 mph - N/A   Clear
11:15 AM 71.2 °F 51.3 °F 49% 30.08 in 10.0 mi NNW 10.4 mph - N/A   Clear
11:35 AM 71.6 °F 50.5 °F 47% 30.08 in 10.0 mi NW 10.4 mph 16.1 mph N/A   Clear
11:54 AM 72.9 °F 51.8 °F 47% 30.08 in 10.0 mi NW 10.4 mph 17.3 mph N/A   Scattered Clouds
12:15 PM 72.7 °F 51.6 °F 47% 30.08 in 10.0 mi NNW 11.5 mph - N/A   Scattered Clouds
12:35 PM 73.2 °F 51.1 °F 46% 30.08 in 10.0 mi North 9.2 mph - N/A   Scattered Clouds
12:54 PM 73.9 °F 50.7 °F 44% 30.08 in 10.0 mi NW 10.4 mph 19.6 mph N/A   Scattered Clouds
1:15 PM 75.0 °F 49.5 °F 40% 30.07 in 10.0 mi NNW 11.5 mph 16.1 mph N/A   Scattered Clouds
1:35 PM 75.4 °F 50.4 °F 41% 30.07 in 10.0 mi WNW 8.1 mph - N/A   Scattered Clouds
1:54 PM 75.4 °F 48.7 °F 39% 30.07 in 10.0 mi North 3.5 mph 17.3 mph N/A   Scattered Clouds
2:15 PM 75.9 °F 46.6 °F 35% 30.07 in 10.0 mi NNW 8.1 mph - N/A   Scattered Clouds
2:35 PM 77.0 °F 46.2 °F 34% 30.07 in 10.0 mi NW 9.2 mph - N/A   Scattered Clouds
2:54 PM 76.8 °F 43.7 °F 31% 30.07 in 10.0 mi NW 5.8 mph - N/A   Scattered Clouds
3:15 PM 77.4 °F 45.0 °F 32% 30.07 in 10.0 mi NE 6.9 mph - N/A   Scattered Clouds
3:35 PM 76.8 °F 44.8 °F 32% 30.07 in 10.0 mi NNE 8.1 mph - N/A   Mostly Cloudy
3:54 PM 78.4 °F 40.3 °F 26% 30.07 in 10.0 mi NNE 6.9 mph - N/A   Scattered Clouds
4:15 PM 79.0 °F 41.0 °F 26% 30.07 in 10.0 mi NNW 8.1 mph - N/A   Clear
4:35 PM 77.9 °F 38.7 °F 24% 30.07 in 10.0 mi North 6.9 mph - N/A   Clear
4:54 PM 78.6 °F 39.2 °F 24% 30.07 in 10.0 mi North 8.1 mph - N/A   Clear
5:15 PM 78.8 °F 42.3 °F 27% 30.07 in 10.0 mi North 6.9 mph - N/A   Clear
5:35 PM 77.9 °F 39.9 °F 26% 30.06 in 10.0 mi NNW 6.9 mph - N/A   Scattered Clouds
5:55 PM 77.9 °F 42.3 °F 28% 30.06 in 10.0 mi NE 5.8 mph - N/A   Clear
6:15 PM 77.9 °F 42.3 °F 28% 30.06 in 10.0 mi NNE 4.6 mph - N/A   Clear
6:35 PM 77.7 °F 42.8 °F 29% 30.06 in 10.0 mi NNW 4.6 mph - N/A   Clear
6:55 PM 77.5 °F 43.5 °F 30% 30.06 in 10.0 mi NNW 4.6 mph - N/A   Clear
7:15 PM 77.4 °F 43.7 °F 30% 30.06 in 10.0 mi NNE 4.6 mph - N/A   Scattered Clouds
7:35 PM 76.8 °F 43.9 °F 31% 30.06 in 10.0 mi North 4.6 mph - N/A   Scattered Clouds
7:55 PM 76.1 °F 44.4 °F 32% 30.06 in 10.0 mi NNE 4.6 mph - N/A   Clear
8:15 PM 75.6 °F 45.3 °F 34% 30.06 in 10.0 mi NNE 3.5 mph - N/A   Clear
8:34 PM 73.9 °F 47.8 °F 40% 30.06 in 10.0 mi NNW 3.5 mph - N/A   Clear
8:55 PM 73.0 °F 48.2 °F 41% 30.06 in 10.0 mi WNW 6.9 mph - N/A   Clear
9:15 PM 67.8 °F 53.4 °F 60% 30.06 in 10.0 mi Calm Calm - N/A   Clear
9:34 PM 69.3 °F 48.2 °F 47% 30.06 in 10.0 mi NNW 4.6 mph - N/A   Clear
9:55 PM 68.4 °F 47.1 °F 47% 30.07 in 10.0 mi NNW 6.9 mph - N/A   Clear
10:15 PM 66.4 °F 48.2 °F 52% 30.08 in 10.0 mi NW 5.8 mph - N/A   Clear
10:34 PM 65.8 °F 48.6 °F 54% 30.08 in 10.0 mi Calm Calm - N/A   Clear
10:55 PM 61.9 °F 50.4 °F 66% 30.09 in 10.0 mi Calm Calm - N/A   Clear
11:15 PM 61.9 °F 50.7 °F 67% 30.09 in 10.0 mi Calm Calm - N/A   Clear
11:34 PM 61.2 °F 50.7 °F 69% 30.10 in 10.0 mi Calm Calm - N/A   Clear
11:55 PM 61.7 °F 52.5 °F 72% 30.10 in 10.0 mi Calm Calm - N/A   Clear